sensor_id;sensor_type;location;lat;lon;timestamp;pressure;altitude;pressure_sealevel;temperature;humidity
22000;BME280;11164;48.818;2.322;2023-03-21T00:01:04;100735.66;;;15.49;37.70
22000;BME280;11164;48.818;2.322;2023-03-21T00:03:31;100731.44;;;15.34;37.95
22000;BME280;11164;48.818;2.322;2023-03-21T00:05:58;100730.50;;;15.41;37.75
22000;BME280;11164;48.818;2.322;2023-03-21T00:08:25;100732.03;;;15.55;37.67
22000;BME280;11164;48.818;2.322;2023-03-21T00:10:57;100723.34;;;15.46;37.59
22000;BME280;11164;48.818;2.322;2023-03-21T00:13:23;100728.78;;;15.46;37.62
22000;BME280;11164;48.818;2.322;2023-03-21T00:15:51;100729.16;;;15.50;37.55
22000;BME280;11164;48.818;2.322;2023-03-21T00:18:22;100719.47;;;15.54;37.49
22000;BME280;11164;48.818;2.322;2023-03-21T00:20:55;100717.22;;;15.51;37.59
22000;BME280;11164;48.818;2.322;2023-03-21T00:23:22;100715.88;;;15.72;37.42
22000;BME280;11164;48.818;2.322;2023-03-21T00:25:48;100718.16;;;15.45;37.43
22000;BME280;11164;48.818;2.322;2023-03-21T00:28:13;100720.00;;;15.44;37.17
22000;BME280;11164;48.818;2.322;2023-03-21T00:30:39;100712.25;;;15.48;37.32
22000;BME280;11164;48.818;2.322;2023-03-21T00:33:04;100715.13;;;15.53;37.34
22000;BME280;11164;48.818;2.322;2023-03-21T00:35:30;100706.13;;;15.52;37.19
22000;BME280;11164;48.818;2.322;2023-03-21T00:37:55;100712.72;;;15.45;37.24
22000;BME280;11164;48.818;2.322;2023-03-21T00:40:20;100705.47;;;15.38;37.36
22000;BME280;11164;48.818;2.322;2023-03-21T00:42:46;100713.97;;;15.42;37.15
22000;BME280;11164;48.818;2.322;2023-03-21T00:45:11;100707.81;;;15.35;37.15
22000;BME280;11164;48.818;2.322;2023-03-21T00:47:37;100709.84;;;15.40;37.10
22000;BME280;11164;48.818;2.322;2023-03-21T00:50:03;100709.94;;;15.33;37.35
22000;BME280;11164;48.818;2.322;2023-03-21T00:52:29;100709.03;;;15.39;37.41
22000;BME280;11164;48.818;2.322;2023-03-21T00:54:54;100707.13;;;15.40;37.10
22000;BME280;11164;48.818;2.322;2023-03-21T00:57:20;100701.69;;;15.40;37.39
22000;BME280;11164;48.818;2.322;2023-03-21T00:59:45;100707.22;;;15.33;37.40
22000;BME280;11164;48.818;2.322;2023-03-21T01:02:10;100695.19;;;15.41;37.43
22000;BME280;11164;48.818;2.322;2023-03-21T01:04:39;100684.81;;;15.37;37.33
22000;BME280;11164;48.818;2.322;2023-03-21T01:07:04;100689.16;;;15.38;37.40
22000;BME280;11164;48.818;2.322;2023-03-21T01:09:30;100692.19;;;15.30;37.50
22000;BME280;11164;48.818;2.322;2023-03-21T01:11:55;100687.97;;;15.16;37.73
22000;BME280;11164;48.818;2.322;2023-03-21T01:14:22;100682.25;;;15.06;37.91
22000;BME280;11164;48.818;2.322;2023-03-21T01:16:49;100679.06;;;15.09;37.68
22000;BME280;11164;48.818;2.322;2023-03-21T01:19:17;100677.81;;;15.11;37.77
22000;BME280;11164;48.818;2.322;2023-03-21T01:21:43;100679.91;;;15.09;37.81
22000;BME280;11164;48.818;2.322;2023-03-21T01:24:09;100675.91;;;15.12;37.58
22000;BME280;11164;48.818;2.322;2023-03-21T01:26:35;100669.34;;;15.01;37.77
22000;BME280;11164;48.818;2.322;2023-03-21T01:29:02;100664.75;;;15.02;37.82
22000;BME280;11164;48.818;2.322;2023-03-21T01:31:27;100657.78;;;15.06;37.70
22000;BME280;11164;48.818;2.322;2023-03-21T01:33:53;100668.97;;;15.16;37.56
22000;BME280;11164;48.818;2.322;2023-03-21T01:36:20;100666.16;;;15.23;37.39
22000;BME280;11164;48.818;2.322;2023-03-21T01:38:46;100676.50;;;15.14;37.42
22000;BME280;11164;48.818;2.322;2023-03-21T01:41:35;100669.88;;;14.91;37.87
22000;BME280;11164;48.818;2.322;2023-03-21T01:44:02;100664.88;;;14.88;37.90
22000;BME280;11164;48.818;2.322;2023-03-21T01:46:44;100662.94;;;14.95;37.81
22000;BME280;11164;48.818;2.322;2023-03-21T01:49:40;100661.22;;;15.01;37.74
22000;BME280;11164;48.818;2.322;2023-03-21T01:52:17;100662.03;;;14.83;37.82
22000;BME280;11164;48.818;2.322;2023-03-21T01:54:45;100664.88;;;14.70;37.95
22000;BME280;11164;48.818;2.322;2023-03-21T01:57:16;100661.25;;;14.76;37.80
22000;BME280;11164;48.818;2.322;2023-03-21T01:59:50;100655.66;;;14.71;37.80
22000;BME280;11164;48.818;2.322;2023-03-21T02:02:24;100650.16;;;14.77;37.65
22000;BME280;11164;48.818;2.322;2023-03-21T02:04:52;100645.31;;;14.79;37.69
22000;BME280;11164;48.818;2.322;2023-03-21T02:07:32;100642.38;;;14.81;37.35
22000;BME280;11164;48.818;2.322;2023-03-21T02:10:04;100642.44;;;14.99;37.29
22000;BME280;11164;48.818;2.322;2023-03-21T02:12:31;100641.22;;;14.95;37.31
22000;BME280;11164;48.818;2.322;2023-03-21T02:14:57;100627.41;;;14.97;37.26
22000;BME280;11164;48.818;2.322;2023-03-21T02:27:57;100616.94;;;14.82;36.97
22000;BME280;11164;48.818;2.322;2023-03-21T02:42:33;100610.66;;;14.63;36.12
22000;BME280;11164;48.818;2.322;2023-03-21T02:44:38;100610.88;;;14.61;36.81
22000;BME280;11164;48.818;2.322;2023-03-21T02:47:33;100597.91;;;14.63;36.22
22000;BME280;11164;48.818;2.322;2023-03-21T02:50:13;100595.47;;;14.55;36.18
22000;BME280;11164;48.818;2.322;2023-03-21T02:52:41;100601.50;;;14.57;36.83
22000;BME280;11164;48.818;2.322;2023-03-21T02:55:19;100600.78;;;14.69;36.29
22000;BME280;11164;48.818;2.322;2023-03-21T02:57:48;100597.03;;;14.70;36.43
22000;BME280;11164;48.818;2.322;2023-03-21T03:00:20;100597.53;;;14.60;36.56
22000;BME280;11164;48.818;2.322;2023-03-21T03:02:47;100592.03;;;14.67;36.44
22000;BME280;11164;48.818;2.322;2023-03-21T03:05:18;100605.59;;;14.67;36.41
22000;BME280;11164;48.818;2.322;2023-03-21T03:07:59;100599.31;;;14.66;35.96
22000;BME280;11164;48.818;2.322;2023-03-21T03:16:11;100588.72;;;14.83;35.86
22000;BME280;11164;48.818;2.322;2023-03-21T03:21:31;100581.94;;;14.74;35.99
22000;BME280;11164;48.818;2.322;2023-03-21T03:24:05;100582.59;;;14.69;36.01
22000;BME280;11164;48.818;2.322;2023-03-21T03:26:35;100573.50;;;14.63;36.04
22000;BME280;11164;48.818;2.322;2023-03-21T03:29:06;100578.25;;;14.68;35.93
22000;BME280;11164;48.818;2.322;2023-03-21T03:31:35;100581.63;;;14.63;36.01
22000;BME280;11164;48.818;2.322;2023-03-21T03:34:08;100585.63;;;14.61;36.08
22000;BME280;11164;48.818;2.322;2023-03-21T03:36:38;100582.63;;;14.51;36.35
22000;BME280;11164;48.818;2.322;2023-03-21T03:39:10;100579.81;;;14.57;35.93
22000;BME280;11164;48.818;2.322;2023-03-21T03:42:12;100579.19;;;14.55;35.15
22000;BME280;11164;48.818;2.322;2023-03-21T03:44:39;100581.47;;;14.58;35.96
22000;BME280;11164;48.818;2.322;2023-03-21T03:47:08;100580.88;;;14.56;35.87
22000;BME280;11164;48.818;2.322;2023-03-21T03:49:48;100559.75;;;14.58;35.47
22000;BME280;11164;48.818;2.322;2023-03-21T03:52:23;100576.13;;;14.70;35.70
22000;BME280;11164;48.818;2.322;2023-03-21T03:54:52;100568.06;;;14.63;35.77
22000;BME280;11164;48.818;2.322;2023-03-21T03:57:19;100570.59;;;14.40;36.03
22000;BME280;11164;48.818;2.322;2023-03-21T03:59:45;100574.75;;;14.42;36.16
22000;BME280;11164;48.818;2.322;2023-03-21T04:02:12;100574.91;;;14.48;35.86
22000;BME280;11164;48.818;2.322;2023-03-21T04:04:38;100571.22;;;14.42;36.01
22000;BME280;11164;48.818;2.322;2023-03-21T04:07:04;100567.28;;;14.38;36.03
22000;BME280;11164;48.818;2.322;2023-03-21T04:09:30;100564.19;;;14.34;36.11
22000;BME280;11164;48.818;2.322;2023-03-21T04:11:57;100578.75;;;14.40;35.73
22000;BME280;11164;48.818;2.322;2023-03-21T04:14:23;100585.38;;;14.44;35.75
22000;BME280;11164;48.818;2.322;2023-03-21T04:16:48;100584.84;;;14.54;35.54
22000;BME280;11164;48.818;2.322;2023-03-21T04:19:15;100588.56;;;14.59;35.45
22000;BME280;11164;48.818;2.322;2023-03-21T04:21:41;100575.91;;;14.53;35.74
22000;BME280;11164;48.818;2.322;2023-03-21T04:24:07;100578.91;;;14.45;35.82
22000;BME280;11164;48.818;2.322;2023-03-21T04:26:33;100577.75;;;14.34;35.89
22000;BME280;11164;48.818;2.322;2023-03-21T04:29:00;100577.38;;;14.31;35.95
22000;BME280;11164;48.818;2.322;2023-03-21T04:31:28;100583.84;;;14.30;35.95
22000;BME280;11164;48.818;2.322;2023-03-21T04:34:00;100578.94;;;14.20;36.07
22000;BME280;11164;48.818;2.322;2023-03-21T04:36:27;100580.75;;;14.26;36.06
22000;BME280;11164;48.818;2.322;2023-03-21T04:39:04;100578.41;;;14.30;35.92
22000;BME280;11164;48.818;2.322;2023-03-21T04:41:36;100564.25;;;14.28;35.99
22000;BME280;11164;48.818;2.322;2023-03-21T04:44:01;100564.72;;;14.24;36.07
22000;BME280;11164;48.818;2.322;2023-03-21T04:46:27;100563.72;;;14.19;36.14
22000;BME280;11164;48.818;2.322;2023-03-21T04:48:52;100566.91;;;14.16;36.20
22000;BME280;11164;48.818;2.322;2023-03-21T04:51:18;100561.47;;;14.16;36.17
22000;BME280;11164;48.818;2.322;2023-03-21T04:53:43;100565.22;;;14.15;36.00
22000;BME280;11164;48.818;2.322;2023-03-21T04:56:13;100574.50;;;14.25;35.91
22000;BME280;11164;48.818;2.322;2023-03-21T04:58:38;100567.03;;;14.21;35.97
22000;BME280;11164;48.818;2.322;2023-03-21T05:01:07;100567.50;;;14.18;35.98
22000;BME280;11164;48.818;2.322;2023-03-21T05:03:32;100573.00;;;14.11;36.10
22000;BME280;11164;48.818;2.322;2023-03-21T05:05:59;100572.16;;;14.11;36.04
22000;BME280;11164;48.818;2.322;2023-03-21T05:08:25;100576.47;;;14.18;36.03
22000;BME280;11164;48.818;2.322;2023-03-21T05:10:51;100565.84;;;14.17;36.06
22000;BME280;11164;48.818;2.322;2023-03-21T05:13:16;100567.88;;;14.21;36.04
22000;BME280;11164;48.818;2.322;2023-03-21T05:15:41;100564.47;;;14.08;36.30
22000;BME280;11164;48.818;2.322;2023-03-21T05:18:07;100566.78;;;14.04;36.54
22000;BME280;11164;48.818;2.322;2023-03-21T05:20:38;100565.94;;;14.03;36.40
22000;BME280;11164;48.818;2.322;2023-03-21T05:23:10;100559.06;;;14.08;36.29
22000;BME280;11164;48.818;2.322;2023-03-21T05:25:38;100561.44;;;13.97;36.46
22000;BME280;11164;48.818;2.322;2023-03-21T05:28:05;100550.53;;;14.04;36.50
22000;BME280;11164;48.818;2.322;2023-03-21T05:30:31;100552.28;;;14.17;36.17
22000;BME280;11164;48.818;2.322;2023-03-21T05:32:57;100564.72;;;14.24;36.12
22000;BME280;11164;48.818;2.322;2023-03-21T05:35:23;100565.72;;;14.05;36.38
22000;BME280;11164;48.818;2.322;2023-03-21T05:37:48;100557.09;;;13.90;36.49
22000;BME280;11164;48.818;2.322;2023-03-21T05:40:14;100566.91;;;13.91;36.69
22000;BME280;11164;48.818;2.322;2023-03-21T05:42:39;100558.16;;;13.88;36.74
22000;BME280;11164;48.818;2.322;2023-03-21T05:45:05;100549.81;;;13.90;36.55
22000;BME280;11164;48.818;2.322;2023-03-21T05:47:31;100545.59;;;13.94;36.37
22000;BME280;11164;48.818;2.322;2023-03-21T05:49:56;100549.13;;;13.95;36.52
22000;BME280;11164;48.818;2.322;2023-03-21T05:52:22;100553.38;;;13.84;36.60
22000;BME280;11164;48.818;2.322;2023-03-21T05:54:47;100554.53;;;13.69;36.87
22000;BME280;11164;48.818;2.322;2023-03-21T05:57:13;100552.16;;;13.80;36.78
22000;BME280;11164;48.818;2.322;2023-03-21T05:59:38;100555.91;;;13.79;36.96
22000;BME280;11164;48.818;2.322;2023-03-21T06:02:03;100547.41;;;13.75;36.84
22000;BME280;11164;48.818;2.322;2023-03-21T06:04:29;100551.63;;;13.71;37.07
22000;BME280;11164;48.818;2.322;2023-03-21T06:06:55;100547.22;;;13.70;37.14
22000;BME280;11164;48.818;2.322;2023-03-21T06:09:20;100553.81;;;13.56;37.26
22000;BME280;11164;48.818;2.322;2023-03-21T06:11:48;100551.72;;;13.58;37.50
22000;BME280;11164;48.818;2.322;2023-03-21T06:14:15;100557.50;;;13.61;37.55
22000;BME280;11164;48.818;2.322;2023-03-21T06:16:41;100553.88;;;13.74;37.61
22000;BME280;11164;48.818;2.322;2023-03-21T06:19:06;100568.47;;;13.73;37.49
22000;BME280;11164;48.818;2.322;2023-03-21T06:21:32;100546.41;;;13.69;37.55
22000;BME280;11164;48.818;2.322;2023-03-21T06:23:57;100560.31;;;13.48;38.05
22000;BME280;11164;48.818;2.322;2023-03-21T06:26:23;100557.16;;;13.51;37.80
22000;BME280;11164;48.818;2.322;2023-03-21T06:28:49;100564.47;;;13.50;38.11
22000;BME280;11164;48.818;2.322;2023-03-21T06:31:15;100569.06;;;13.50;38.04
22000;BME280;11164;48.818;2.322;2023-03-21T06:33:41;100556.06;;;13.27;38.47
22000;BME280;11164;48.818;2.322;2023-03-21T06:36:07;100560.03;;;13.31;38.37
22000;BME280;11164;48.818;2.322;2023-03-21T06:38:32;100561.41;;;13.40;38.31
22000;BME280;11164;48.818;2.322;2023-03-21T06:41:02;100561.97;;;13.49;38.22
22000;BME280;11164;48.818;2.322;2023-03-21T06:43:29;100546.38;;;13.44;38.47
22000;BME280;11164;48.818;2.322;2023-03-21T06:45:55;100545.56;;;13.44;38.47
22000;BME280;11164;48.818;2.322;2023-03-21T06:48:21;100549.47;;;13.48;38.23
22000;BME280;11164;48.818;2.322;2023-03-21T06:50:50;100543.44;;;13.46;38.35
22000;BME280;11164;48.818;2.322;2023-03-21T06:53:16;100535.38;;;13.39;38.54
22000;BME280;11164;48.818;2.322;2023-03-21T06:55:42;100524.69;;;13.44;38.45
22000;BME280;11164;48.818;2.322;2023-03-21T06:58:07;100529.59;;;13.61;38.21
22000;BME280;11164;48.818;2.322;2023-03-21T07:00:33;100527.97;;;13.53;38.37
22000;BME280;11164;48.818;2.322;2023-03-21T07:02:59;100523.13;;;13.62;38.46
22000;BME280;11164;48.818;2.322;2023-03-21T07:05:26;100531.66;;;13.65;38.38
22000;BME280;11164;48.818;2.322;2023-03-21T07:07:51;100518.16;;;13.59;38.43
22000;BME280;11164;48.818;2.322;2023-03-21T07:10:17;100515.63;;;13.64;38.38
22000;BME280;11164;48.818;2.322;2023-03-21T07:12:42;100522.13;;;13.81;38.29
22000;BME280;11164;48.818;2.322;2023-03-21T07:15:08;100521.47;;;13.86;38.25
22000;BME280;11164;48.818;2.322;2023-03-21T07:17:34;100525.22;;;13.85;38.32
22000;BME280;11164;48.818;2.322;2023-03-21T07:19:59;100527.44;;;13.95;38.44
22000;BME280;11164;48.818;2.322;2023-03-21T07:22:25;100514.59;;;14.09;38.11
22000;BME280;11164;48.818;2.322;2023-03-21T07:24:50;100517.41;;;14.02;38.42
22000;BME280;11164;48.818;2.322;2023-03-21T07:27:18;100527.88;;;14.17;38.31
22000;BME280;11164;48.818;2.322;2023-03-21T07:29:43;100529.00;;;14.28;38.18
22000;BME280;11164;48.818;2.322;2023-03-21T07:32:11;100529.53;;;14.36;38.12
22000;BME280;11164;48.818;2.322;2023-03-21T07:34:36;100539.38;;;14.12;38.53
22000;BME280;11164;48.818;2.322;2023-03-21T07:37:02;100539.47;;;14.05;38.79
22000;BME280;11164;48.818;2.322;2023-03-21T07:39:27;100542.34;;;14.29;38.45
22000;BME280;11164;48.818;2.322;2023-03-21T07:41:53;100522.75;;;14.27;38.44
22000;BME280;11164;48.818;2.322;2023-03-21T07:44:22;100523.88;;;14.38;38.42
22000;BME280;11164;48.818;2.322;2023-03-21T07:46:47;100523.06;;;14.56;38.20
22000;BME280;11164;48.818;2.322;2023-03-21T07:49:13;100517.53;;;14.62;38.21
22000;BME280;11164;48.818;2.322;2023-03-21T07:51:38;100512.50;;;14.66;37.84
22000;BME280;11164;48.818;2.322;2023-03-21T07:54:04;100499.91;;;14.72;38.14
22000;BME280;11164;48.818;2.322;2023-03-21T07:56:29;100483.53;;;14.78;38.13
22000;BME280;11164;48.818;2.322;2023-03-21T07:58:55;100469.13;;;14.78;38.10
22000;BME280;11164;48.818;2.322;2023-03-21T08:01:20;100475.31;;;14.85;37.93
22000;BME280;11164;48.818;2.322;2023-03-21T08:03:46;100478.94;;;14.97;37.94
22000;BME280;11164;48.818;2.322;2023-03-21T08:06:12;100482.25;;;14.81;38.04
22000;BME280;11164;48.818;2.322;2023-03-21T08:08:39;100494.41;;;14.78;38.19
22000;BME280;11164;48.818;2.322;2023-03-21T08:11:05;100505.72;;;14.75;38.33
22000;BME280;11164;48.818;2.322;2023-03-21T08:13:31;100514.22;;;14.60;38.56
22000;BME280;11164;48.818;2.322;2023-03-21T08:15:56;100554.19;;;14.72;38.48
22000;BME280;11164;48.818;2.322;2023-03-21T08:18:22;100541.97;;;14.62;38.50
22000;BME280;11164;48.818;2.322;2023-03-21T08:20:54;100544.84;;;14.68;38.56
22000;BME280;11164;48.818;2.322;2023-03-21T08:23:20;100571.97;;;14.49;38.77
22000;BME280;11164;48.818;2.322;2023-03-21T08:25:49;100572.88;;;13.99;39.56
22000;BME280;11164;48.818;2.322;2023-03-21T08:28:16;100565.34;;;14.27;39.13
22000;BME280;11164;48.818;2.322;2023-03-21T08:30:41;100544.25;;;14.47;38.91
22000;BME280;11164;48.818;2.322;2023-03-21T08:33:07;100555.84;;;14.36;39.07
22000;BME280;11164;48.818;2.322;2023-03-21T08:35:32;100548.53;;;14.55;38.77
22000;BME280;11164;48.818;2.322;2023-03-21T08:37:58;100529.06;;;14.76;38.52
22000;BME280;11164;48.818;2.322;2023-03-21T08:40:23;100509.63;;;14.98;38.31
22000;BME280;11164;48.818;2.322;2023-03-21T08:42:49;100494.56;;;15.14;38.38
22000;BME280;11164;48.818;2.322;2023-03-21T08:45:16;100489.28;;;15.31;38.10
22000;BME280;11164;48.818;2.322;2023-03-21T08:47:41;100504.81;;;15.54;37.84
22000;BME280;11164;48.818;2.322;2023-03-21T08:50:09;100540.69;;;15.44;38.05
22000;BME280;11164;48.818;2.322;2023-03-21T08:52:35;100539.47;;;15.70;37.81
22000;BME280;11164;48.818;2.322;2023-03-21T08:55:01;100539.06;;;15.67;38.03
22000;BME280;11164;48.818;2.322;2023-03-21T08:57:28;100557.09;;;15.80;38.00
22000;BME280;11164;48.818;2.322;2023-03-21T08:59:54;100559.84;;;16.27;37.36
22000;BME280;11164;48.818;2.322;2023-03-21T09:02:19;100551.25;;;16.59;37.09
22000;BME280;11164;48.818;2.322;2023-03-21T09:04:45;100548.31;;;17.13;36.12
22000;BME280;11164;48.818;2.322;2023-03-21T09:07:11;100546.50;;;16.78;36.84
22000;BME280;11164;48.818;2.322;2023-03-21T09:09:39;100557.97;;;16.92;37.08
22000;BME280;11164;48.818;2.322;2023-03-21T09:12:06;100551.25;;;16.82;37.28
22000;BME280;11164;48.818;2.322;2023-03-21T09:14:32;100553.19;;;16.70;37.46
22000;BME280;11164;48.818;2.322;2023-03-21T09:16:58;100556.91;;;16.93;37.17
22000;BME280;11164;48.818;2.322;2023-03-21T09:19:24;100558.28;;;16.43;37.53
22000;BME280;11164;48.818;2.322;2023-03-21T09:21:50;100558.88;;;16.45;37.91
22000;BME280;11164;48.818;2.322;2023-03-21T09:24:18;100559.38;;;16.42;37.80
22000;BME280;11164;48.818;2.322;2023-03-21T09:26:43;100545.59;;;16.60;37.52
22000;BME280;11164;48.818;2.322;2023-03-21T09:29:09;100543.25;;;16.64;37.36
22000;BME280;11164;48.818;2.322;2023-03-21T09:31:35;100554.63;;;16.37;37.64
22000;BME280;11164;48.818;2.322;2023-03-21T09:34:00;100549.44;;;16.12;37.98
22000;BME280;11164;48.818;2.322;2023-03-21T09:36:26;100556.06;;;16.04;38.14
22000;BME280;11164;48.818;2.322;2023-03-21T09:38:53;100553.56;;;16.03;37.88
22000;BME280;11164;48.818;2.322;2023-03-21T09:45:06;100548.47;;;15.41;37.92
22000;BME280;11164;48.818;2.322;2023-03-21T09:47:45;100556.47;;;15.66;38.08
22000;BME280;11164;48.818;2.322;2023-03-21T09:50:32;100561.53;;;15.62;37.62
22000;BME280;11164;48.818;2.322;2023-03-21T09:53:03;100552.41;;;15.45;38.60
22000;BME280;11164;48.818;2.322;2023-03-21T09:55:34;100553.81;;;15.47;38.53
22000;BME280;11164;48.818;2.322;2023-03-21T10:00:48;100547.66;;;16.29;37.17
22000;BME280;11164;48.818;2.322;2023-03-21T10:03:23;100538.41;;;16.30;37.02
22000;BME280;11164;48.818;2.322;2023-03-21T10:05:54;100554.22;;;16.69;37.10
22000;BME280;11164;48.818;2.322;2023-03-21T10:08:29;100553.34;;;16.40;37.33
22000;BME280;11164;48.818;2.322;2023-03-21T10:11:19;100558.78;;;16.28;36.87
22000;BME280;11164;48.818;2.322;2023-03-21T10:13:56;100563.00;;;16.47;36.87
22000;BME280;11164;48.818;2.322;2023-03-21T10:16:46;100565.44;;;16.84;37.00
22000;BME280;11164;48.818;2.322;2023-03-21T10:19:15;100572.56;;;16.85;37.05
22000;BME280;11164;48.818;2.322;2023-03-21T10:21:44;100559.56;;;16.76;37.39
22000;BME280;11164;48.818;2.322;2023-03-21T10:24:15;100568.19;;;17.13;36.52
22000;BME280;11164;48.818;2.322;2023-03-21T10:26:42;100566.19;;;16.80;37.55
22000;BME280;11164;48.818;2.322;2023-03-21T10:29:09;100566.63;;;16.88;37.27
22000;BME280;11164;48.818;2.322;2023-03-21T10:31:37;100560.19;;;16.95;37.41
22000;BME280;11164;48.818;2.322;2023-03-21T10:34:12;100565.56;;;16.78;37.38
22000;BME280;11164;48.818;2.322;2023-03-21T10:36:40;100569.63;;;16.63;37.81
22000;BME280;11164;48.818;2.322;2023-03-21T10:39:19;100563.69;;;16.90;37.36
22000;BME280;11164;48.818;2.322;2023-03-21T10:41:45;100553.44;;;17.26;36.75
22000;BME280;11164;48.818;2.322;2023-03-21T10:44:14;100540.34;;;17.40;36.51
22000;BME280;11164;48.818;2.322;2023-03-21T10:46:56;100536.88;;;17.44;35.53
22000;BME280;11164;48.818;2.322;2023-03-21T10:49:23;100533.88;;;17.29;36.74
22000;BME280;11164;48.818;2.322;2023-03-21T10:51:51;100539.28;;;17.41;36.55
22000;BME280;11164;48.818;2.322;2023-03-21T10:54:25;100543.94;;;17.57;36.62
22000;BME280;11164;48.818;2.322;2023-03-21T10:56:56;100540.00;;;17.36;36.71
22000;BME280;11164;48.818;2.322;2023-03-21T10:59:25;100547.41;;;17.87;36.28
22000;BME280;11164;48.818;2.322;2023-03-21T11:01:54;100542.25;;;18.63;35.35
22000;BME280;11164;48.818;2.322;2023-03-21T11:04:26;100543.38;;;18.89;34.62
22000;BME280;11164;48.818;2.322;2023-03-21T11:07:05;100544.03;;;18.52;34.71
22000;BME280;11164;48.818;2.322;2023-03-21T11:09:49;100548.00;;;18.89;34.81
22000;BME280;11164;48.818;2.322;2023-03-21T11:12:28;100545.69;;;18.53;35.95
22000;BME280;11164;48.818;2.322;2023-03-21T11:14:54;100538.69;;;18.41;36.10
22000;BME280;11164;48.818;2.322;2023-03-21T11:17:29;100524.00;;;18.08;36.05
22000;BME280;11164;48.818;2.322;2023-03-21T11:20:04;100539.63;;;18.29;36.09
22000;BME280;11164;48.818;2.322;2023-03-21T11:22:38;100539.38;;;18.14;35.79
22000;BME280;11164;48.818;2.322;2023-03-21T11:25:06;100532.88;;;17.98;36.48
22000;BME280;11164;48.818;2.322;2023-03-21T11:27:32;100534.06;;;17.39;37.44
22000;BME280;11164;48.818;2.322;2023-03-21T11:30:00;100542.56;;;17.72;37.22
22000;BME280;11164;48.818;2.322;2023-03-21T11:35:15;100536.41;;;17.65;36.64
22000;BME280;11164;48.818;2.322;2023-03-21T11:37:44;100527.66;;;17.96;36.69
22000;BME280;11164;48.818;2.322;2023-03-21T11:40:28;100531.59;;;18.06;36.39
22000;BME280;11164;48.818;2.322;2023-03-21T11:42:56;100540.25;;;18.19;36.40
22000;BME280;11164;48.818;2.322;2023-03-21T11:45:30;100539.81;;;17.55;37.29
22000;BME280;11164;48.818;2.322;2023-03-21T11:47:59;100531.38;;;17.90;36.98
22000;BME280;11164;48.818;2.322;2023-03-21T12:03:58;100539.06;;;17.93;36.90
22000;BME280;11164;48.818;2.322;2023-03-21T12:06:37;100530.72;;;17.83;37.08
22000;BME280;11164;48.818;2.322;2023-03-21T12:25:16;100518.31;;;17.92;36.78
22000;BME280;11164;48.818;2.322;2023-03-21T12:33:17;100507.28;;;18.21;37.04
22000;BME280;11164;48.818;2.322;2023-03-21T12:36:27;100503.94;;;17.97;37.09
22000;BME280;11164;48.818;2.322;2023-03-21T12:44:26;100488.22;;;17.87;37.39
22000;BME280;11164;48.818;2.322;2023-03-21T12:47:02;100466.78;;;17.74;37.26
22000;BME280;11164;48.818;2.322;2023-03-21T12:49:49;100482.34;;;17.95;36.97
22000;BME280;11164;48.818;2.322;2023-03-21T12:52:21;100483.53;;;17.99;36.95
22000;BME280;11164;48.818;2.322;2023-03-21T12:54:55;100481.41;;;17.68;38.01
22000;BME280;11164;48.818;2.322;2023-03-21T12:57:30;100462.97;;;18.31;36.89
22000;BME280;11164;48.818;2.322;2023-03-21T13:00:06;100458.28;;;19.30;35.46
22000;BME280;11164;48.818;2.322;2023-03-21T13:03:00;100464.09;;;20.97;32.79
22000;BME280;11164;48.818;2.322;2023-03-21T13:05:31;100468.25;;;22.58;30.59
22000;BME280;11164;48.818;2.322;2023-03-21T13:08:08;100465.09;;;20.60;32.58
22000;BME280;11164;48.818;2.322;2023-03-21T13:10:38;100463.91;;;19.50;35.37
22000;BME280;11164;48.818;2.322;2023-03-21T13:13:10;100470.84;;;19.31;35.30
22000;BME280;11164;48.818;2.322;2023-03-21T13:18:18;100453.50;;;18.38;37.10
22000;BME280;11164;48.818;2.322;2023-03-21T13:20:57;100458.72;;;19.17;36.07
22000;BME280;11164;48.818;2.322;2023-03-21T13:23:27;100457.25;;;19.74;35.51
22000;BME280;11164;48.818;2.322;2023-03-21T13:25:57;100460.03;;;19.46;35.99
22000;BME280;11164;48.818;2.322;2023-03-21T13:28:32;100455.63;;;19.08;35.73
22000;BME280;11164;48.818;2.322;2023-03-21T13:31:30;100456.09;;;19.05;35.50
22000;BME280;11164;48.818;2.322;2023-03-21T13:33:58;100459.97;;;19.36;35.89
22000;BME280;11164;48.818;2.322;2023-03-21T13:36:29;100453.25;;;19.49;35.70
22000;BME280;11164;48.818;2.322;2023-03-21T13:39:00;100443.00;;;19.34;35.10
22000;BME280;11164;48.818;2.322;2023-03-21T13:41:38;100434.16;;;18.67;36.35
22000;BME280;11164;48.818;2.322;2023-03-21T13:44:23;100433.84;;;18.91;36.02
22000;BME280;11164;48.818;2.322;2023-03-21T13:49:34;100435.88;;;19.33;35.55
22000;BME280;11164;48.818;2.322;2023-03-21T13:52:20;100436.28;;;19.15;35.88
22000;BME280;11164;48.818;2.322;2023-03-21T13:54:54;100422.72;;;18.98;35.79
22000;BME280;11164;48.818;2.322;2023-03-21T13:57:40;100424.66;;;19.02;35.47
22000;BME280;11164;48.818;2.322;2023-03-21T14:00:27;100423.00;;;18.74;35.77
22000;BME280;11164;48.818;2.322;2023-03-21T14:03:05;100423.69;;;18.59;36.39
22000;BME280;11164;48.818;2.322;2023-03-21T14:05:32;100422.41;;;18.67;36.04
22000;BME280;11164;48.818;2.322;2023-03-21T14:08:16;100419.13;;;17.98;36.90
22000;BME280;11164;48.818;2.322;2023-03-21T14:10:44;100422.03;;;18.14;36.89
22000;BME280;11164;48.818;2.322;2023-03-21T14:13:15;100428.53;;;18.30;36.58
22000;BME280;11164;48.818;2.322;2023-03-21T14:15:58;100421.16;;;18.52;36.48
22000;BME280;11164;48.818;2.322;2023-03-21T14:18:26;100414.19;;;18.67;36.34
22000;BME280;11164;48.818;2.322;2023-03-21T14:20:54;100418.84;;;18.66;35.99
22000;BME280;11164;48.818;2.322;2023-03-21T14:23:20;100430.03;;;18.21;37.03
22000;BME280;11164;48.818;2.322;2023-03-21T14:25:46;100431.38;;;18.62;36.32
22000;BME280;11164;48.818;2.322;2023-03-21T14:28:19;100432.78;;;18.92;35.62